sensor_id;sensor_type;location;lat;lon;timestamp;P1;durP1;ratioP1;P2;durP2;ratioP2
23470;SDS011;11908;50.806;4.424;2023-09-19T00:01:05;18.67;;;3.00;;
23470;SDS011;11908;50.806;4.424;2023-09-19T00:03:34;12.88;;;2.85;;
23470;SDS011;11908;50.806;4.424;2023-09-19T00:06:03;11.45;;;2.90;;
23470;SDS011;11908;50.806;4.424;2023-09-19T00:08:30;15.82;;;2.78;;
23470;SDS011;11908;50.806;4.424;2023-09-19T00:10:58;14.48;;;2.92;;
23470;SDS011;11908;50.806;4.424;2023-09-19T00:13:30;14.00;;;2.40;;
23470;SDS011;11908;50.806;4.424;2023-09-19T00:15:57;11.88;;;2.40;;
23470;SDS011;11908;50.806;4.424;2023-09-19T00:18:24;12.95;;;2.88;;
23470;SDS011;11908;50.806;4.424;2023-09-19T00:20:57;14.85;;;2.47;;
23470;SDS011;11908;50.806;4.424;2023-09-19T00:23:23;18.50;;;2.80;;
23470;SDS011;11908;50.806;4.424;2023-09-19T00:25:49;15.57;;;3.22;;
23470;SDS011;11908;50.806;4.424;2023-09-19T00:28:16;19.80;;;3.20;;
23470;SDS011;11908;50.806;4.424;2023-09-19T00:30:43;10.63;;;2.67;;
23470;SDS011;11908;50.806;4.424;2023-09-19T00:33:10;14.27;;;2.90;;
23470;SDS011;11908;50.806;4.424;2023-09-19T00:35:46;12.40;;;2.88;;
23470;SDS011;11908;50.806;4.424;2023-09-19T00:38:15;11.68;;;2.40;;
23470;SDS011;11908;50.806;4.424;2023-09-19T00:40:46;14.27;;;2.88;;
23470;SDS011;11908;50.806;4.424;2023-09-19T00:43:13;15.77;;;2.53;;
23470;SDS011;11908;50.806;4.424;2023-09-19T00:45:39;10.02;;;2.20;;
23470;SDS011;11908;50.806;4.424;2023-09-19T00:48:09;10.77;;;2.63;;
23470;SDS011;11908;50.806;4.424;2023-09-19T00:50:35;13.75;;;2.90;;
23470;SDS011;11908;50.806;4.424;2023-09-19T00:53:01;9.93;;;2.45;;
23470;SDS011;11908;50.806;4.424;2023-09-19T00:58:02;15.95;;;2.67;;
23470;SDS011;11908;50.806;4.424;2023-09-19T01:00:28;21.10;;;2.83;;
23470;SDS011;11908;50.806;4.424;2023-09-19T01:02:54;12.93;;;2.53;;
23470;SDS011;11908;50.806;4.424;2023-09-19T01:05:19;14.02;;;2.60;;
23470;SDS011;11908;50.806;4.424;2023-09-19T01:07:45;10.50;;;2.50;;
23470;SDS011;11908;50.806;4.424;2023-09-19T01:10:14;11.07;;;2.67;;
23470;SDS011;11908;50.806;4.424;2023-09-19T01:21:08;9.50;;;1.98;;
23470;SDS011;11908;50.806;4.424;2023-09-19T01:32:04;13.15;;;2.80;;
23470;SDS011;11908;50.806;4.424;2023-09-19T01:34:44;16.65;;;2.70;;
23470;SDS011;11908;50.806;4.424;2023-09-19T01:37:15;12.02;;;2.80;;
23470;SDS011;11908;50.806;4.424;2023-09-19T01:40:09;12.38;;;2.90;;
23470;SDS011;11908;50.806;4.424;2023-09-19T01:42:43;11.82;;;2.47;;
23470;SDS011;11908;50.806;4.424;2023-09-19T01:53:26;16.05;;;2.85;;
23470;SDS011;11908;50.806;4.424;2023-09-19T01:55:55;17.67;;;3.30;;
23470;SDS011;11908;50.806;4.424;2023-09-19T02:01:04;18.17;;;3.40;;
23470;SDS011;11908;50.806;4.424;2023-09-19T02:03:33;19.80;;;3.45;;
23470;SDS011;11908;50.806;4.424;2023-09-19T02:06:00;15.25;;;2.53;;
23470;SDS011;11908;50.806;4.424;2023-09-19T02:08:26;15.65;;;3.05;;
23470;SDS011;11908;50.806;4.424;2023-09-19T02:10:52;20.90;;;3.03;;
23470;SDS011;11908;50.806;4.424;2023-09-19T02:13:21;14.82;;;2.97;;
23470;SDS011;11908;50.806;4.424;2023-09-19T02:15:50;9.07;;;2.83;;
23470;SDS011;11908;50.806;4.424;2023-09-19T02:18:16;19.25;;;3.58;;
23470;SDS011;11908;50.806;4.424;2023-09-19T02:20:42;13.10;;;2.97;;
23470;SDS011;11908;50.806;4.424;2023-09-19T02:23:08;16.58;;;2.67;;
23470;SDS011;11908;50.806;4.424;2023-09-19T02:25:34;13.15;;;2.83;;
23470;SDS011;11908;50.806;4.424;2023-09-19T02:28:00;12.25;;;2.85;;
23470;SDS011;11908;50.806;4.424;2023-09-19T02:30:28;18.30;;;3.60;;
23470;SDS011;11908;50.806;4.424;2023-09-19T02:32:54;11.25;;;2.70;;
23470;SDS011;11908;50.806;4.424;2023-09-19T02:35:19;18.73;;;3.38;;
23470;SDS011;11908;50.806;4.424;2023-09-19T02:37:48;13.23;;;2.90;;
23470;SDS011;11908;50.806;4.424;2023-09-19T02:40:14;15.05;;;3.00;;
23470;SDS011;11908;50.806;4.424;2023-09-19T02:42:52;16.63;;;3.85;;
23470;SDS011;11908;50.806;4.424;2023-09-19T02:45:19;17.98;;;3.22;;
23470;SDS011;11908;50.806;4.424;2023-09-19T02:47:45;12.85;;;2.92;;
23470;SDS011;11908;50.806;4.424;2023-09-19T02:50:12;14.10;;;3.00;;
23470;SDS011;11908;50.806;4.424;2023-09-19T02:52:38;10.70;;;2.70;;
23470;SDS011;11908;50.806;4.424;2023-09-19T02:55:07;12.85;;;3.10;;
23470;SDS011;11908;50.806;4.424;2023-09-19T02:57:34;13.27;;;3.05;;
23470;SDS011;11908;50.806;4.424;2023-09-19T03:00:01;13.80;;;3.13;;
23470;SDS011;11908;50.806;4.424;2023-09-19T03:02:29;11.40;;;2.72;;
23470;SDS011;11908;50.806;4.424;2023-09-19T03:04:57;12.68;;;3.05;;
23470;SDS011;11908;50.806;4.424;2023-09-19T03:07:25;14.68;;;2.70;;
23470;SDS011;11908;50.806;4.424;2023-09-19T03:09:51;11.73;;;2.42;;
23470;SDS011;11908;50.806;4.424;2023-09-19T03:12:17;10.30;;;2.67;;
23470;SDS011;11908;50.806;4.424;2023-09-19T03:14:43;15.18;;;3.13;;
23470;SDS011;11908;50.806;4.424;2023-09-19T03:17:09;15.43;;;3.22;;
23470;SDS011;11908;50.806;4.424;2023-09-19T03:19:34;11.90;;;2.72;;
23470;SDS011;11908;50.806;4.424;2023-09-19T03:22:02;13.82;;;2.45;;
23470;SDS011;11908;50.806;4.424;2023-09-19T03:24:28;11.77;;;2.90;;
23470;SDS011;11908;50.806;4.424;2023-09-19T03:26:54;9.32;;;2.35;;
23470;SDS011;11908;50.806;4.424;2023-09-19T03:29:20;18.75;;;3.10;;
23470;SDS011;11908;50.806;4.424;2023-09-19T03:31:45;13.82;;;2.78;;
23470;SDS011;11908;50.806;4.424;2023-09-19T03:34:11;13.90;;;2.53;;
23470;SDS011;11908;50.806;4.424;2023-09-19T03:36:37;9.10;;;2.25;;
23470;SDS011;11908;50.806;4.424;2023-09-19T03:39:02;11.75;;;3.30;;
23470;SDS011;11908;50.806;4.424;2023-09-19T03:41:30;10.45;;;2.50;;
23470;SDS011;11908;50.806;4.424;2023-09-19T03:43:56;12.98;;;2.65;;
23470;SDS011;11908;50.806;4.424;2023-09-19T03:46:22;14.85;;;3.53;;
23470;SDS011;11908;50.806;4.424;2023-09-19T03:48:47;14.40;;;2.88;;
23470;SDS011;11908;50.806;4.424;2023-09-19T03:51:13;12.48;;;2.80;;
23470;SDS011;11908;50.806;4.424;2023-09-19T03:53:39;11.93;;;2.97;;
23470;SDS011;11908;50.806;4.424;2023-09-19T03:56:04;18.63;;;3.35;;
23470;SDS011;11908;50.806;4.424;2023-09-19T03:58:30;19.98;;;3.40;;
23470;SDS011;11908;50.806;4.424;2023-09-19T04:00:56;18.38;;;3.00;;
23470;SDS011;11908;50.806;4.424;2023-09-19T04:03:23;15.20;;;2.60;;
23470;SDS011;11908;50.806;4.424;2023-09-19T04:05:49;18.10;;;3.47;;
23470;SDS011;11908;50.806;4.424;2023-09-19T04:08:15;18.52;;;2.90;;
23470;SDS011;11908;50.806;4.424;2023-09-19T04:10:44;9.13;;;2.70;;
23470;SDS011;11908;50.806;4.424;2023-09-19T04:13:10;10.27;;;2.38;;
23470;SDS011;11908;50.806;4.424;2023-09-19T04:15:36;14.65;;;3.10;;
23470;SDS011;11908;50.806;4.424;2023-09-19T04:18:02;15.40;;;3.10;;
23470;SDS011;11908;50.806;4.424;2023-09-19T04:20:28;13.57;;;2.90;;
23470;SDS011;11908;50.806;4.424;2023-09-19T04:22:54;13.73;;;2.65;;
23470;SDS011;11908;50.806;4.424;2023-09-19T04:25:20;14.35;;;2.90;;
23470;SDS011;11908;50.806;4.424;2023-09-19T04:27:45;10.40;;;2.63;;
23470;SDS011;11908;50.806;4.424;2023-09-19T04:30:11;14.90;;;2.78;;
23470;SDS011;11908;50.806;4.424;2023-09-19T04:32:40;10.57;;;2.70;;
23470;SDS011;11908;50.806;4.424;2023-09-19T04:35:07;14.30;;;2.42;;
23470;SDS011;11908;50.806;4.424;2023-09-19T04:37:33;12.40;;;2.28;;
23470;SDS011;11908;50.806;4.424;2023-09-19T04:40:09;16.50;;;2.85;;
23470;SDS011;11908;50.806;4.424;2023-09-19T04:42:42;11.75;;;3.33;;
23470;SDS011;11908;50.806;4.424;2023-09-19T04:45:11;15.38;;;3.38;;
23470;SDS011;11908;50.806;4.424;2023-09-19T04:47:37;9.90;;;2.90;;
23470;SDS011;11908;50.806;4.424;2023-09-19T04:50:07;11.18;;;2.42;;
23470;SDS011;11908;50.806;4.424;2023-09-19T04:52:38;11.00;;;2.75;;
23470;SDS011;11908;50.806;4.424;2023-09-19T04:55:16;12.63;;;3.10;;
23470;SDS011;11908;50.806;4.424;2023-09-19T04:57:47;19.25;;;3.58;;
23470;SDS011;11908;50.806;4.424;2023-09-19T05:00:17;17.88;;;2.83;;
23470;SDS011;11908;50.806;4.424;2023-09-19T05:02:49;14.50;;;2.95;;
23470;SDS011;11908;50.806;4.424;2023-09-19T05:05:20;12.95;;;2.40;;
23470;SDS011;11908;50.806;4.424;2023-09-19T05:07:47;14.32;;;2.92;;
23470;SDS011;11908;50.806;4.424;2023-09-19T05:10:13;11.88;;;2.60;;
23470;SDS011;11908;50.806;4.424;2023-09-19T05:12:39;14.43;;;2.78;;
23470;SDS011;11908;50.806;4.424;2023-09-19T05:15:05;13.88;;;2.58;;
23470;SDS011;11908;50.806;4.424;2023-09-19T05:17:32;15.32;;;2.47;;
23470;SDS011;11908;50.806;4.424;2023-09-19T05:19:59;11.95;;;2.72;;
23470;SDS011;11908;50.806;4.424;2023-09-19T05:22:30;12.45;;;2.42;;
23470;SDS011;11908;50.806;4.424;2023-09-19T05:24:57;15.98;;;2.67;;
23470;SDS011;11908;50.806;4.424;2023-09-19T05:27:23;12.98;;;2.78;;
23470;SDS011;11908;50.806;4.424;2023-09-19T05:29:49;20.25;;;2.47;;
23470;SDS011;11908;50.806;4.424;2023-09-19T05:32:18;12.23;;;2.40;;
23470;SDS011;11908;50.806;4.424;2023-09-19T05:34:44;12.15;;;2.13;;
23470;SDS011;11908;50.806;4.424;2023-09-19T05:37:10;10.48;;;2.13;;
23470;SDS011;11908;50.806;4.424;2023-09-19T05:39:36;9.40;;;2.05;;
23470;SDS011;11908;50.806;4.424;2023-09-19T05:42:02;15.32;;;3.08;;
23470;SDS011;11908;50.806;4.424;2023-09-19T05:44:28;13.40;;;2.70;;
23470;SDS011;11908;50.806;4.424;2023-09-19T05:46:54;15.90;;;2.92;;
23470;SDS011;11908;50.806;4.424;2023-09-19T05:49:21;9.95;;;2.40;;
23470;SDS011;11908;50.806;4.424;2023-09-19T05:51:47;12.23;;;2.15;;
23470;SDS011;11908;50.806;4.424;2023-09-19T05:54:13;20.23;;;3.83;;
23470;SDS011;11908;50.806;4.424;2023-09-19T05:56:38;13.38;;;2.67;;
23470;SDS011;11908;50.806;4.424;2023-09-19T05:59:04;13.05;;;2.38;;
23470;SDS011;11908;50.806;4.424;2023-09-19T06:01:30;15.32;;;2.70;;
23470;SDS011;11908;50.806;4.424;2023-09-19T06:03:57;13.60;;;2.50;;
23470;SDS011;11908;50.806;4.424;2023-09-19T06:06:25;14.48;;;3.03;;
23470;SDS011;11908;50.806;4.424;2023-09-19T06:08:51;9.73;;;3.47;;
23470;SDS011;11908;50.806;4.424;2023-09-19T06:11:16;13.60;;;2.60;;
23470;SDS011;11908;50.806;4.424;2023-09-19T06:13:45;13.27;;;2.92;;
23470;SDS011;11908;50.806;4.424;2023-09-19T06:16:12;11.05;;;2.33;;
23470;SDS011;11908;50.806;4.424;2023-09-19T06:18:38;13.60;;;2.28;;
23470;SDS011;11908;50.806;4.424;2023-09-19T06:21:04;16.70;;;2.97;;
23470;SDS011;11908;50.806;4.424;2023-09-19T06:23:32;13.73;;;3.38;;
23470;SDS011;11908;50.806;4.424;2023-09-19T06:25:59;11.88;;;3.30;;
23470;SDS011;11908;50.806;4.424;2023-09-19T06:28:24;15.05;;;3.55;;
23470;SDS011;11908;50.806;4.424;2023-09-19T06:30:53;22.67;;;3.10;;
23470;SDS011;11908;50.806;4.424;2023-09-19T06:33:22;15.35;;;3.20;;
23470;SDS011;11908;50.806;4.424;2023-09-19T06:35:48;13.68;;;3.15;;
23470;SDS011;11908;50.806;4.424;2023-09-19T06:38:13;12.45;;;2.47;;
23470;SDS011;11908;50.806;4.424;2023-09-19T06:40:40;15.43;;;3.13;;
23470;SDS011;11908;50.806;4.424;2023-09-19T06:43:09;10.70;;;1.75;;
23470;SDS011;11908;50.806;4.424;2023-09-19T06:45:36;10.85;;;1.85;;
23470;SDS011;11908;50.806;4.424;2023-09-19T06:48:01;14.80;;;2.95;;
23470;SDS011;11908;50.806;4.424;2023-09-19T06:50:28;14.23;;;3.20;;
23470;SDS011;11908;50.806;4.424;2023-09-19T06:52:55;12.77;;;2.83;;
23470;SDS011;11908;50.806;4.424;2023-09-19T06:55:24;11.40;;;2.50;;
23470;SDS011;11908;50.806;4.424;2023-09-19T06:57:52;12.10;;;2.65;;
23470;SDS011;11908;50.806;4.424;2023-09-19T07:00:21;14.63;;;3.60;;
23470;SDS011;11908;50.806;4.424;2023-09-19T07:03:00;9.02;;;2.13;;
23470;SDS011;11908;50.806;4.424;2023-09-19T07:05:29;12.88;;;3.35;;
23470;SDS011;11908;50.806;4.424;2023-09-19T07:08:00;12.98;;;2.50;;
23470;SDS011;11908;50.806;4.424;2023-09-19T07:10:26;11.02;;;2.80;;
23470;SDS011;11908;50.806;4.424;2023-09-19T07:13:03;12.25;;;2.72;;
23470;SDS011;11908;50.806;4.424;2023-09-19T07:15:32;14.63;;;2.83;;
23470;SDS011;11908;50.806;4.424;2023-09-19T07:18:00;12.95;;;2.33;;
23470;SDS011;11908;50.806;4.424;2023-09-19T07:20:26;12.40;;;2.60;;
23470;SDS011;11908;50.806;4.424;2023-09-19T07:22:53;14.55;;;2.60;;
23470;SDS011;11908;50.806;4.424;2023-09-19T07:25:24;10.18;;;2.30;;
23470;SDS011;11908;50.806;4.424;2023-09-19T07:27:50;14.38;;;2.58;;
23470;SDS011;11908;50.806;4.424;2023-09-19T07:30:16;10.82;;;2.63;;
23470;SDS011;11908;50.806;4.424;2023-09-19T07:32:42;9.93;;;2.20;;
23470;SDS011;11908;50.806;4.424;2023-09-19T07:35:07;14.32;;;2.70;;
23470;SDS011;11908;50.806;4.424;2023-09-19T07:37:33;12.63;;;2.55;;
23470;SDS011;11908;50.806;4.424;2023-09-19T07:40:01;11.93;;;2.53;;
23470;SDS011;11908;50.806;4.424;2023-09-19T07:42:34;14.27;;;3.08;;
23470;SDS011;11908;50.806;4.424;2023-09-19T07:45:01;12.85;;;2.95;;
23470;SDS011;11908;50.806;4.424;2023-09-19T07:47:28;11.15;;;2.72;;
23470;SDS011;11908;50.806;4.424;2023-09-19T07:49:55;14.60;;;2.92;;
23470;SDS011;11908;50.806;4.424;2023-09-19T07:52:21;10.93;;;2.53;;
23470;SDS011;11908;50.806;4.424;2023-09-19T07:54:47;16.75;;;3.47;;
23470;SDS011;11908;50.806;4.424;2023-09-19T07:57:14;11.05;;;2.20;;
23470;SDS011;11908;50.806;4.424;2023-09-19T07:59:40;17.65;;;2.78;;
23470;SDS011;11908;50.806;4.424;2023-09-19T08:02:07;19.10;;;3.53;;
23470;SDS011;11908;50.806;4.424;2023-09-19T08:04:34;10.75;;;2.70;;
23470;SDS011;11908;50.806;4.424;2023-09-19T08:07:00;8.10;;;2.42;;
23470;SDS011;11908;50.806;4.424;2023-09-19T08:09:28;13.73;;;3.15;;
23470;SDS011;11908;50.806;4.424;2023-09-19T08:11:58;12.73;;;2.45;;
23470;SDS011;11908;50.806;4.424;2023-09-19T08:14:27;9.23;;;2.10;;
23470;SDS011;11908;50.806;4.424;2023-09-19T08:16:56;11.00;;;2.40;;
23470;SDS011;11908;50.806;4.424;2023-09-19T08:19:24;19.10;;;3.50;;
23470;SDS011;11908;50.806;4.424;2023-09-19T08:21:55;12.75;;;2.47;;
23470;SDS011;11908;50.806;4.424;2023-09-19T08:24:23;13.38;;;2.75;;
23470;SDS011;11908;50.806;4.424;2023-09-19T08:26:52;8.48;;;3.05;;
23470;SDS011;11908;50.806;4.424;2023-09-19T08:29:19;14.00;;;2.50;;
23470;SDS011;11908;50.806;4.424;2023-09-19T08:31:45;17.10;;;3.00;;
23470;SDS011;11908;50.806;4.424;2023-09-19T08:34:14;12.80;;;2.47;;
23470;SDS011;11908;50.806;4.424;2023-09-19T08:36:40;14.68;;;2.90;;
23470;SDS011;11908;50.806;4.424;2023-09-19T08:39:08;11.48;;;2.70;;
23470;SDS011;11908;50.806;4.424;2023-09-19T08:41:34;13.80;;;2.63;;
23470;SDS011;11908;50.806;4.424;2023-09-19T08:43:59;14.57;;;3.03;;
23470;SDS011;11908;50.806;4.424;2023-09-19T08:46:29;12.02;;;2.92;;
23470;SDS011;11908;50.806;4.424;2023-09-19T08:49:07;11.25;;;2.55;;
23470;SDS011;11908;50.806;4.424;2023-09-19T08:51:42;11.40;;;2.58;;
23470;SDS011;11908;50.806;4.424;2023-09-19T08:54:12;13.48;;;2.65;;
23470;SDS011;11908;50.806;4.424;2023-09-19T08:56:56;12.52;;;2.70;;
23470;SDS011;11908;50.806;4.424;2023-09-19T08:59:27;10.27;;;2.55;;
23470;SDS011;11908;50.806;4.424;2023-09-19T09:01:54;10.38;;;2.58;;
23470;SDS011;11908;50.806;4.424;2023-09-19T09:04:22;13.10;;;2.83;;
23470;SDS011;11908;50.806;4.424;2023-09-19T09:06:48;8.52;;;2.40;;
23470;SDS011;11908;50.806;4.424;2023-09-19T09:09:18;8.35;;;2.45;;
23470;SDS011;11908;50.806;4.424;2023-09-19T09:11:45;12.80;;;2.72;;
23470;SDS011;11908;50.806;4.424;2023-09-19T09:14:13;12.07;;;3.05;;
23470;SDS011;11908;50.806;4.424;2023-09-19T09:16:39;9.35;;;2.10;;
23470;SDS011;11908;50.806;4.424;2023-09-19T09:19:05;11.43;;;2.50;;
23470;SDS011;11908;50.806;4.424;2023-09-19T09:21:30;11.43;;;2.50;;
23470;SDS011;11908;50.806;4.424;2023-09-19T09:24:25;10.02;;;2.47;;
23470;SDS011;11908;50.806;4.424;2023-09-19T09:26:56;13.52;;;2.22;;
23470;SDS011;11908;50.806;4.424;2023-09-19T09:29:42;10.77;;;2.75;;
23470;SDS011;11908;50.806;4.424;2023-09-19T09:34:46;12.82;;;2.10;;
23470;SDS011;11908;50.806;4.424;2023-09-19T09:37:17;8.23;;;2.38;;
23470;SDS011;11908;50.806;4.424;2023-09-19T09:42:43;8.50;;;2.08;;
23470;SDS011;11908;50.806;4.424;2023-09-19T09:45:12;7.95;;;1.80;;
23470;SDS011;11908;50.806;4.424;2023-09-19T09:47:53;9.52;;;2.05;;
23470;SDS011;11908;50.806;4.424;2023-09-19T09:50:35;8.45;;;2.67;;
23470;SDS011;11908;50.806;4.424;2023-09-19T09:53:28;10.27;;;2.55;;
23470;SDS011;11908;50.806;4.424;2023-09-19T09:56:07;9.32;;;2.03;;
23470;SDS011;11908;50.806;4.424;2023-09-19T09:58:37;8.65;;;1.80;;
23470;SDS011;11908;50.806;4.424;2023-09-19T10:01:15;12.93;;;1.80;;
23470;SDS011;11908;50.806;4.424;2023-09-19T10:03:41;7.70;;;1.80;;
23470;SDS011;11908;50.806;4.424;2023-09-19T10:06:15;10.68;;;2.05;;
23470;SDS011;11908;50.806;4.424;2023-09-19T10:09:06;8.38;;;2.00;;
23470;SDS011;11908;50.806;4.424;2023-09-19T10:12:01;9.23;;;1.88;;
23470;SDS011;11908;50.806;4.424;2023-09-19T10:14:30;6.82;;;1.70;;
23470;SDS011;11908;50.806;4.424;2023-09-19T10:16:59;13.43;;;2.20;;
23470;SDS011;11908;50.806;4.424;2023-09-19T10:19:30;4.38;;;1.40;;
23470;SDS011;11908;50.806;4.424;2023-09-19T10:22:02;8.93;;;2.15;;
23470;SDS011;11908;50.806;4.424;2023-09-19T10:24:30;7.75;;;1.88;;
23470;SDS011;11908;50.806;4.424;2023-09-19T10:26:59;6.72;;;1.50;;
23470;SDS011;11908;50.806;4.424;2023-09-19T10:29:25;8.18;;;1.73;;
23470;SDS011;11908;50.806;4.424;2023-09-19T10:31:56;8.20;;;1.80;;
23470;SDS011;11908;50.806;4.424;2023-09-19T10:34:23;6.43;;;1.65;;
23470;SDS011;11908;50.806;4.424;2023-09-19T10:36:51;6.43;;;1.50;;
23470;SDS011;11908;50.806;4.424;2023-09-19T10:39:19;8.88;;;1.50;;
23470;SDS011;11908;50.806;4.424;2023-09-19T10:41:50;5.22;;;1.10;;
23470;SDS011;11908;50.806;4.424;2023-09-19T10:44:22;6.70;;;1.45;;
23470;SDS011;11908;50.806;4.424;2023-09-19T10:46:50;3.38;;;1.15;;
23470;SDS011;11908;50.806;4.424;2023-09-19T10:49:17;8.27;;;1.60;;
23470;SDS011;11908;50.806;4.424;2023-09-19T10:51:44;9.98;;;1.60;;
23470;SDS011;11908;50.806;4.424;2023-09-19T10:54:13;11.05;;;1.60;;
23470;SDS011;11908;50.806;4.424;2023-09-19T10:56:43;5.68;;;1.50;;
23470;SDS011;11908;50.806;4.424;2023-09-19T10:59:17;9.55;;;1.25;;
23470;SDS011;11908;50.806;4.424;2023-09-19T11:04:31;6.55;;;1.08;;
23470;SDS011;11908;50.806;4.424;2023-09-19T11:07:02;5.90;;;1.10;;
23470;SDS011;11908;50.806;4.424;2023-09-19T11:09:44;6.13;;;1.08;;
23470;SDS011;11908;50.806;4.424;2023-09-19T11:12:12;5.38;;;1.40;;
23470;SDS011;11908;50.806;4.424;2023-09-19T11:15:00;7.22;;;1.50;;
23470;SDS011;11908;50.806;4.424;2023-09-19T11:17:39;4.32;;;1.30;;
23470;SDS011;11908;50.806;4.424;2023-09-19T11:30:51;5.75;;;1.13;;
23470;SDS011;11908;50.806;4.424;2023-09-19T11:33:20;7.90;;;1.10;;
23470;SDS011;11908;50.806;4.424;2023-09-19T11:36:19;2.92;;;0.93;;
23470;SDS011;11908;50.806;4.424;2023-09-19T11:39:01;7.35;;;1.00;;
23470;SDS011;11908;50.806;4.424;2023-09-19T11:41:39;3.25;;;1.15;;
23470;SDS011;11908;50.806;4.424;2023-09-19T11:46:31;8.38;;;1.38;;
23470;SDS011;11908;50.806;4.424;2023-09-19T11:49:05;8.25;;;1.27;;
23470;SDS011;11908;50.806;4.424;2023-09-19T11:51:41;6.80;;;1.60;;
23470;SDS011;11908;50.806;4.424;2023-09-19T11:54:12;5.53;;;1.40;;
23470;SDS011;11908;50.806;4.424;2023-09-19T11:56:43;4.80;;;1.45;;
23470;SDS011;11908;50.806;4.424;2023-09-19T11:59:10;5.38;;;1.02;;
23470;SDS011;11908;50.806;4.424;2023-09-19T12:01:36;5.63;;;1.85;;
23470;SDS011;11908;50.806;4.424;2023-09-19T12:04:08;3.70;;;1.05;;
23470;SDS011;11908;50.806;4.424;2023-09-19T12:06:36;5.72;;;1.20;;
23470;SDS011;11908;50.806;4.424;2023-09-19T12:09:04;7.15;;;1.20;;
23470;SDS011;11908;50.806;4.424;2023-09-19T12:11:40;6.22;;;1.33;;
23470;SDS011;11908;50.806;4.424;2023-09-19T12:14:09;5.32;;;1.00;;
23470;SDS011;11908;50.806;4.424;2023-09-19T12:16:34;6.05;;;1.13;;
23470;SDS011;11908;50.806;4.424;2023-09-19T12:19:20;11.32;;;1.63;;
23470;SDS011;11908;50.806;4.424;2023-09-19T12:21:56;5.70;;;1.67;;
23470;SDS011;11908;50.806;4.424;2023-09-19T12:24:29;5.70;;;0.95;;
23470;SDS011;11908;50.806;4.424;2023-09-19T12:27:05;9.93;;;1.33;;
23470;SDS011;11908;50.806;4.424;2023-09-19T12:29:52;4.88;;;0.77;;
23470;SDS011;11908;50.806;4.424;2023-09-19T12:32:41;4.80;;;1.02;;
23470;SDS011;11908;50.806;4.424;2023-09-19T12:35:07;4.05;;;0.85;;
23470;SDS011;11908;50.806;4.424;2023-09-19T12:37:36;3.53;;;1.05;;
23470;SDS011;11908;50.806;4.424;2023-09-19T12:40:08;7.45;;;1.13;;
23470;SDS011;11908;50.806;4.424;2023-09-19T12:42:47;6.85;;;1.63;;
23470;SDS011;11908;50.806;4.424;2023-09-19T12:45:14;8.32;;;0.85;;
23470;SDS011;11908;50.806;4.424;2023-09-19T12:51:07;4.13;;;0.75;;
23470;SDS011;11908;50.806;4.424;2023-09-19T12:53:37;3.47;;;0.93;;
23470;SDS011;11908;50.806;4.424;2023-09-19T12:56:12;7.53;;;1.70;;
23470;SDS011;11908;50.806;4.424;2023-09-19T12:58:49;10.40;;;1.38;;
23470;SDS011;11908;50.806;4.424;2023-09-19T13:01:19;7.82;;;1.10;;
23470;SDS011;11908;50.806;4.424;2023-09-19T13:03:45;11.00;;;1.38;;
23470;SDS011;11908;50.806;4.424;2023-09-19T13:06:11;3.88;;;1.13;;
23470;SDS011;11908;50.806;4.424;2023-09-19T13:08:38;4.00;;;1.08;;
23470;SDS011;11908;50.806;4.424;2023-09-19T13:16:26;7.22;;;1.10;;
23470;SDS011;11908;50.806;4.424;2023-09-19T13:18:53;3.90;;;1.20;;
23470;SDS011;11908;50.806;4.424;2023-09-19T13:21:54;3.15;;;1.00;;
23470;SDS011;11908;50.806;4.424;2023-09-19T13:24:22;4.53;;;1.20;;
23470;SDS011;11908;50.806;4.424;2023-09-19T13:26:52;10.23;;;1.20;;
23470;SDS011;11908;50.806;4.424;2023-09-19T13:29:21;7.07;;;1.27;;
23470;SDS011;11908;50.806;4.424;2023-09-19T13:31:47;4.55;;;1.13;;
23470;SDS011;11908;50.806;4.424;2023-09-19T13:34:13;3.17;;;1.17;;
23470;SDS011;11908;50.806;4.424;2023-09-19T13:36:41;7.05;;;1.50;;
23470;SDS011;11908;50.806;4.424;2023-09-19T13:39:07;3.80;;;1.10;;
23470;SDS011;11908;50.806;4.424;2023-09-19T13:41:34;7.63;;;1.23;;
23470;SDS011;11908;50.806;4.424;2023-09-19T13:44:02;6.47;;;1.10;;
23470;SDS011;11908;50.806;4.424;2023-09-19T13:46:28;6.03;;;1.10;;
23470;SDS011;11908;50.806;4.424;2023-09-19T13:48:56;5.82;;;1.05;;
23470;SDS011;11908;50.806;4.424;2023-09-19T13:51:25;6.18;;;1.55;;
23470;SDS011;11908;50.806;4.424;2023-09-19T13:53:51;7.68;;;1.33;;
23470;SDS011;11908;50.806;4.424;2023-09-19T13:56:17;7.13;;;1.38;;
23470;SDS011;11908;50.806;4.424;2023-09-19T13:58:42;8.95;;;1.20;;
23470;SDS011;11908;50.806;4.424;2023-09-19T14:01:08;6.20;;;1.30;;
23470;SDS011;11908;50.806;4.424;2023-09-19T14:03:37;3.47;;;1.00;;
23470;SDS011;11908;50.806;4.424;2023-09-19T14:06:04;5.18;;;1.13;;
23470;SDS011;11908;50.806;4.424;2023-09-19T14:08:30;8.57;;;1.10;;
23470;SDS011;11908;50.806;4.424;2023-09-19T14:10:55;5.07;;;1.50;;
23470;SDS011;11908;50.806;4.424;2023-09-19T14:13:21;4.88;;;1.40;;
23470;SDS011;11908;50.806;4.424;2023-09-19T14:15:47;7.25;;;1.13;;
23470;SDS011;11908;50.806;4.424;2023-09-19T14:18:12;4.05;;;1.05;;
23470;SDS011;11908;50.806;4.424;2023-09-19T14:20:38;7.03;;;1.33;;
23470;SDS011;11908;50.806;4.424;2023-09-19T14:23:07;4.88;;;1.40;;
23470;SDS011;11908;50.806;4.424;2023-09-19T14:25:36;7.28;;;1.30;;
23470;SDS011;11908;50.806;4.424;2023-09-19T14:28:03;4.93;;;1.38;;
23470;SDS011;11908;50.806;4.424;2023-09-19T14:30:29;3.45;;;1.13;;
23470;SDS011;11908;50.806;4.424;2023-09-19T14:32:56;5.47;;;1.02;;
23470;SDS011;11908;50.806;4.424;2023-09-19T14:35:23;4.97;;;1.45;;
23470;SDS011;11908;50.806;4.424;2023-09-19T14:37:48;5.82;;;1.23;;
23470;SDS011;11908;50.806;4.424;2023-09-19T14:40:14;8.50;;;1.27;;
23470;SDS011;11908;50.806;4.424;2023-09-19T14:42:43;5.93;;;1.23;;
23470;SDS011;11908;50.806;4.424;2023-09-19T14:45:10;7.90;;;1.55;;
23470;SDS011;11908;50.806;4.424;2023-09-19T14:47:36;7.82;;;1.52;;
23470;SDS011;11908;50.806;4.424;2023-09-19T14:50:03;4.30;;;1.10;;
23470;SDS011;11908;50.806;4.424;2023-09-19T14:52:34;8.48;;;1.50;;
23470;SDS011;11908;50.806;4.424;2023-09-19T14:55:01;7.10;;;1.40;;
23470;SDS011;11908;50.806;4.424;2023-09-19T14:57:27;6.05;;;1.20;;
23470;SDS011;11908;50.806;4.424;2023-09-19T14:59:53;4.93;;;1.35;;
23470;SDS011;11908;50.806;4.424;2023-09-19T15:02:19;8.70;;;1.40;;
23470;SDS011;11908;50.806;4.424;2023-09-19T15:04:45;7.57;;;1.40;;
23470;SDS011;11908;50.806;4.424;2023-09-19T15:07:15;6.40;;;1.63;;
23470;SDS011;11908;50.806;4.424;2023-09-19T15:09:42;9.10;;;2.15;;
23470;SDS011;11908;50.806;4.424;2023-09-19T15:12:08;5.95;;;1.48;;
23470;SDS011;11908;50.806;4.424;2023-09-19T15:14:36;8.40;;;1.55;;
23470;SDS011;11908;50.806;4.424;2023-09-19T15:17:02;9.80;;;1.90;;
23470;SDS011;11908;50.806;4.424;2023-09-19T15:19:29;6.03;;;1.48;;
23470;SDS011;11908;50.806;4.424;2023-09-19T15:21:55;7.82;;;1.67;;
23470;SDS011;11908;50.806;4.424;2023-09-19T15:24:22;8.70;;;2.17;;
23470;SDS011;11908;50.806;4.424;2023-09-19T15:26:48;9.68;;;1.60;;
23470;SDS011;11908;50.806;4.424;2023-09-19T15:29:13;13.43;;;2.30;;
23470;SDS011;11908;50.806;4.424;2023-09-19T15:31:39;6.10;;;1.58;;
23470;SDS011;11908;50.806;4.424;2023-09-19T15:34:05;7.68;;;1.52;;
23470;SDS011;11908;50.806;4.424;2023-09-19T15:36:32;5.85;;;1.70;;
23470;SDS011;11908;50.806;4.424;2023-09-19T15:43:57;2.97;;;1.20;;
23470;SDS011;11908;50.806;4.424;2023-09-19T15:46:27;5.30;;;1.35;;
23470;SDS011;11908;50.806;4.424;2023-09-19T15:48:54;5.93;;;1.48;;
23470;SDS011;11908;50.806;4.424;2023-09-19T15:51:21;6.35;;;1.40;;
23470;SDS011;11908;50.806;4.424;2023-09-19T15:53:47;8.88;;;1.40;;
23470;SDS011;11908;50.806;4.424;2023-09-19T15:56:15;5.82;;;1.42;;